createdAt,value
2024-01-19T00:01:12.157Z,97572.47
2024-01-19T00:05:14.493Z,97577.63
2024-01-19T00:09:16.851Z,97586.19
2024-01-19T00:13:19.056Z,97587.94
2024-01-19T00:17:21.346Z,97591.38
2024-01-19T00:21:23.469Z,97590.56
2024-01-19T00:25:25.753Z,97596.56
2024-01-19T00:29:27.827Z,97612.91
2024-01-19T00:33:30.117Z,97615.47
2024-01-19T00:37:32.232Z,97616.31
2024-01-19T00:41:34.423Z,97620.59
2024-01-19T00:45:36.924Z,97628.31
2024-01-19T00:49:39.410Z,97630.03
2024-01-19T00:53:41.683Z,97633.44
2024-01-19T00:57:43.843Z,97638.56
2024-01-19T01:01:45.960Z,97649.66
2024-01-19T01:05:48.127Z,97647.09
2024-01-19T01:09:50.491Z,97651.41
2024-01-19T01:13:52.642Z,97658.25
2024-01-19T01:17:54.814Z,97665.97
2024-01-19T01:21:56.990Z,97668.53
2024-01-19T01:25:59.221Z,97672.75
2024-01-19T01:30:06.579Z,97686.47
2024-01-19T01:34:09.621Z,97680.44
2024-01-19T01:38:11.845Z,97685.53
2024-01-19T01:42:14.175Z,97698.38
2024-01-19T01:46:16.352Z,97708.69
2024-01-19T01:50:19.634Z,97712.94
2024-01-19T01:54:22.103Z,97721.53
2024-01-19T01:58:24.413Z,97726.66
2024-01-19T02:02:26.607Z,97727.50
2024-01-19T02:06:29.499Z,97723.22
2024-01-19T02:10:31.673Z,97740.41
2024-01-19T02:14:34.051Z,97732.75
2024-01-19T02:18:36.249Z,97753.38
2024-01-19T02:22:40.343Z,97754.25
2024-01-19T02:26:42.879Z,97755.09
2024-01-19T02:30:45.682Z,97754.25
2024-01-19T02:34:47.866Z,97761.09
2024-01-19T02:38:50.197Z,97759.41
2024-01-19T02:42:52.352Z,97755.09
2024-01-19T02:46:54.493Z,97757.69
2024-01-19T02:50:56.652Z,97758.53
2024-01-19T02:54:58.802Z,97767.94
2024-01-19T02:59:00.893Z,97759.41
2024-01-19T03:03:03.088Z,97758.53
2024-01-19T03:07:05.213Z,97762.81
2024-01-19T03:11:07.304Z,97761.97
2024-01-19T03:15:09.841Z,97771.34
2024-01-19T03:19:12.216Z,97773.84
2024-01-19T03:23:14.367Z,97770.41
2024-01-19T03:27:16.468Z,97772.97
2024-01-19T03:31:18.638Z,97778.16
2024-01-19T03:35:21.024Z,97782.44
2024-01-19T03:39:24.419Z,97783.31
2024-01-19T03:43:26.463Z,97783.31
2024-01-19T03:47:28.997Z,97795.31
2024-01-19T03:51:31.153Z,97793.56
2024-01-19T03:55:33.266Z,97800.38
2024-01-19T03:59:35.559Z,97793.47
2024-01-19T04:03:37.892Z,97800.28
2024-01-19T04:07:40.089Z,97804.53
2024-01-19T04:11:42.206Z,97811.31
2024-01-19T04:15:44.482Z,97815.59
2024-01-19T04:19:46.616Z,97818.16
2024-01-19T04:23:49.474Z,97819.88
2024-01-19T04:27:52.182Z,97824.13
2024-01-19T04:31:54.654Z,97830.94
2024-01-19T04:35:56.764Z,97836.88
2024-01-19T04:39:58.833Z,97841.19
2024-01-19T04:44:00.883Z,97844.59
2024-01-19T04:48:03.567Z,97848.84
2024-01-19T04:52:05.805Z,97851.41
2024-01-19T04:56:08.321Z,97860.78
2024-01-19T05:00:10.950Z,97849.63
2024-01-19T05:04:13.257Z,97849.59
2024-01-19T05:08:15.379Z,97856.41
2024-01-19T05:12:17.717Z,97861.50
2024-01-19T05:16:19.786Z,97867.44
2024-01-19T05:20:22.081Z,97865.72
2024-01-19T05:24:24.169Z,97869.91
2024-01-19T05:28:26.273Z,97869.91
2024-01-19T05:32:28.431Z,97875.06
2024-01-19T05:36:30.539Z,97878.44
2024-01-19T05:40:32.709Z,97885.28
2024-01-19T05:44:34.837Z,97900.66
2024-01-19T05:48:36.947Z,97900.59
2024-01-19T05:52:39.141Z,97903.13
2024-01-19T05:56:41.198Z,97915.03
2024-01-19T06:00:44.146Z,97930.41
2024-01-19T06:04:46.226Z,97933.75
2024-01-19T06:08:48.294Z,97941.44
2024-01-19T06:12:50.427Z,97939.75
2024-01-19T06:16:53.867Z,97953.41
2024-01-19T06:20:56.318Z,97956.75
2024-01-19T06:24:58.485Z,97961.78
2024-01-19T06:29:00.514Z,97971.94
2024-01-19T06:33:06.427Z,97976.31
2024-01-19T06:37:08.572Z,97982.03
2024-01-19T06:41:10.675Z,97987.88
2024-01-19T06:45:15.131Z,97985.25
2024-01-19T06:49:18.051Z,97992.84
2024-01-19T06:53:20.118Z,98023.41
2024-01-19T06:57:22.339Z,98024.94
2024-01-19T07:01:24.367Z,98038.94
2024-01-19T07:05:26.835Z,98042.59
2024-01-19T07:09:29.317Z,98051.06
2024-01-19T07:13:31.365Z,98053.81
2024-01-19T07:17:33.508Z,98062.56
2024-01-19T07:21:41.880Z,98065.09
2024-01-19T07:25:43.933Z,98068.59
2024-01-19T07:29:46.070Z,98074.97
2024-01-19T07:33:48.334Z,98072.69
2024-01-19T07:37:50.484Z,98088.84
2024-01-19T07:41:52.853Z,98088.94
2024-01-19T07:45:55.054Z,98094.13
2024-01-19T07:49:57.089Z,98077.19
2024-01-19T07:53:59.389Z,98112.28
2024-01-19T07:58:03.796Z,98119.41
2024-01-19T08:02:08.364Z,98127.34
2024-01-19T08:06:11.518Z,98129.31
2024-01-19T08:10:13.723Z,98126.22
2024-01-19T08:14:15.946Z,98146.34
2024-01-19T08:18:18.130Z,98152.72
2024-01-19T08:22:20.255Z,98156.41
2024-01-19T08:26:22.805Z,98161.75
2024-01-19T08:30:24.957Z,98156.00
2024-01-19T08:34:28.889Z,98158.75
2024-01-19T08:38:30.965Z,98164.03
2024-01-19T08:42:33.563Z,98173.59
2024-01-19T08:46:35.854Z,98174.63
2024-01-19T08:50:37.965Z,98176.41
2024-01-19T08:54:40.135Z,98192.69
2024-01-19T08:58:42.275Z,98191.81
2024-01-19T09:02:50.184Z,98194.47
2024-01-19T09:07:00.098Z,98203.13
2024-01-19T09:11:02.573Z,98208.31
2024-01-19T09:15:05.359Z,98210.06
2024-01-19T09:19:07.584Z,98217.81
2024-01-19T09:23:09.677Z,98226.41
2024-01-19T09:27:11.726Z,98222.09
2024-01-19T09:31:14.729Z,98231.53
2024-01-19T09:35:16.855Z,98244.47
2024-01-19T09:39:20.464Z,98254.78
2024-01-19T09:43:23.227Z,98270.25
2024-01-19T09:47:31.854Z,98275.41
2024-01-19T09:51:56.363Z,98270.22
2024-01-19T09:55:58.659Z,98276.25
2024-01-19T10:00:00.905Z,98274.50
2024-01-19T10:04:07.490Z,98281.38
2024-01-19T10:08:12.867Z,98289.09
2024-01-19T10:12:18.441Z,98296.84
2024-01-19T10:16:20.580Z,98304.63
2024-01-19T10:20:23.050Z,98305.47
2024-01-19T10:24:25.567Z,98308.06
2024-01-19T10:28:34.446Z,98312.38
2024-01-19T10:32:41.510Z,98310.59
2024-01-19T10:36:43.718Z,98319.09
2024-01-19T10:40:46.817Z,98318.16
2024-01-19T10:44:48.924Z,98314.69
2024-01-19T10:48:51.894Z,98311.28
2024-01-19T10:52:56.253Z,98315.66
2024-01-19T10:57:06.150Z,98330.28
2024-01-19T11:01:19.237Z,98319.06
2024-01-19T11:05:21.704Z,98331.97
2024-01-19T11:09:24.280Z,98332.75
2024-01-19T11:13:27.417Z,98337.03
2024-01-19T11:17:29.914Z,98338.72
2024-01-19T11:21:32.349Z,98348.25
2024-01-19T11:25:53.083Z,98356.78
2024-01-19T11:30:10.148Z,98356.84
2024-01-19T11:34:54.309Z,98361.19
2024-01-19T11:38:56.449Z,98366.44
2024-01-19T11:42:58.965Z,98370.75
2024-01-19T11:47:01.022Z,98373.34
2024-01-19T11:51:03.549Z,98366.50
2024-01-19T11:55:27.721Z,98370.75
2024-01-19T11:59:30.170Z,98377.66
2024-01-19T12:03:32.555Z,98382.78
2024-01-19T12:07:34.703Z,98379.38
2024-01-19T12:11:36.917Z,98392.31
2024-01-19T12:15:44.735Z,98386.28
2024-01-19T12:19:47.007Z,98383.66
2024-01-19T12:23:53.646Z,98381.16
2024-01-19T12:28:08.906Z,98382.75
2024-01-19T12:32:14.630Z,98382.63
2024-01-19T12:36:18.835Z,98372.09
2024-01-19T12:40:22.991Z,98370.28
2024-01-19T12:44:25.124Z,98367.69
2024-01-19T12:48:32.177Z,98371.94
2024-01-19T12:52:37.556Z,98368.38
2024-01-19T12:56:39.649Z,98365.75
2024-01-19T13:00:43.214Z,98365.78
2024-01-19T13:04:45.457Z,98372.81
2024-01-19T13:08:47.617Z,98377.13
2024-01-19T13:12:49.818Z,98375.44
2024-01-19T13:16:54.251Z,98382.34
2024-01-19T13:20:56.543Z,98395.28
2024-01-19T13:24:58.677Z,98394.50
2024-01-19T13:29:00.830Z,98401.47
2024-01-19T13:33:03.326Z,98404.97
2024-01-19T13:37:05.491Z,98405.91
2024-01-19T13:41:09.499Z,98412.03
2024-01-19T13:45:11.877Z,98418.94
2024-01-19T13:49:13.926Z,98415.53
2024-01-19T13:53:17.042Z,98414.59
2024-01-19T13:57:19.345Z,98418.84
2024-01-19T14:01:21.727Z,98414.53
2024-01-19T14:05:24.891Z,98417.13
2024-01-19T14:09:27.004Z,98422.25
2024-01-19T14:13:29.916Z,98429.16
2024-01-19T14:17:32.030Z,98444.72
2024-01-19T14:21:34.084Z,98446.53
2024-01-19T14:25:36.236Z,98448.28
2024-01-19T14:29:39.363Z,98449.97
2024-01-19T14:33:43.826Z,98445.69
2024-01-19T14:37:50.302Z,98447.34
2024-01-19T14:41:52.973Z,98448.19
2024-01-19T14:45:55.592Z,98464.63
2024-01-19T14:50:00.930Z,98456.00
2024-01-19T14:54:03.768Z,98473.31
2024-01-19T14:58:05.919Z,98469.00
2024-01-19T15:02:08.540Z,98481.13
2024-01-19T15:06:10.657Z,98477.66
2024-01-19T15:10:14.846Z,98482.00
2024-01-19T15:14:17.047Z,98498.34
2024-01-19T15:18:21.541Z,98500.09
2024-01-19T15:22:25.936Z,98514.72
2024-01-19T15:26:28.005Z,98518.19
2024-01-19T15:30:36.563Z,98538.88
2024-01-19T15:34:42.981Z,98537.16
2024-01-19T15:38:46.534Z,98549.22
2024-01-19T15:42:48.648Z,98551.78
2024-01-19T15:46:50.751Z,98563.00
2024-01-19T15:50:52.893Z,98574.22
2024-01-19T15:54:55.999Z,98590.56
2024-01-19T15:58:58.148Z,98593.13
2024-01-19T16:03:00.209Z,98611.16
2024-01-19T16:07:02.319Z,98610.28
2024-01-19T16:11:06.830Z,98605.09
2024-01-19T16:15:09.460Z,98612.03
2024-01-19T16:19:12.451Z,98619.78
2024-01-19T16:23:14.573Z,98626.69
2024-01-19T16:27:16.688Z,98624.06
2024-01-19T16:31:19.699Z,98630.94
2024-01-19T16:35:27.810Z,98629.22
2024-01-19T16:39:37.095Z,98618.88
2024-01-19T16:43:39.524Z,98624.88
2024-01-19T16:47:41.767Z,98629.19
2024-01-19T16:51:45.992Z,98624.91
2024-01-19T16:55:48.735Z,98633.53
2024-01-19T16:59:51.070Z,98633.50
2024-01-19T17:03:53.267Z,98631.75
2024-01-19T17:07:56.860Z,98642.91
2024-01-19T17:11:58.949Z,98641.19
2024-01-19T17:16:01.031Z,98649.81
2024-01-19T17:20:06.732Z,98650.63
2024-01-19T17:24:09.416Z,98659.16
2024-01-19T17:28:13.188Z,98664.31
2024-01-19T17:32:15.692Z,98668.53
2024-01-19T17:36:18.123Z,98671.09
2024-01-19T17:40:20.732Z,98678.91
2024-01-19T17:44:23.189Z,98674.50
2024-01-19T17:48:25.479Z,98678.72
2024-01-19T17:52:37.700Z,98682.09
2024-01-19T17:56:40.624Z,98697.56
2024-01-19T18:00:42.695Z,98696.56
2024-01-19T18:04:44.778Z,98701.56
2024-01-19T18:08:46.896Z,98710.91
2024-01-19T18:12:48.935Z,98715.94
2024-01-19T18:16:51.375Z,98726.81
2024-01-19T18:20:53.707Z,98733.56
2024-01-19T18:24:55.859Z,98739.28
2024-01-19T18:28:58.399Z,98752.16
2024-01-19T18:33:00.796Z,98742.47
2024-01-19T18:37:04.015Z,98759.47
2024-01-19T18:41:06.513Z,98773.94
2024-01-19T18:45:09.027Z,98779.91
2024-01-19T18:49:11.163Z,98785.13
2024-01-19T18:53:13.853Z,98785.06
2024-01-19T18:57:16.065Z,98797.97
2024-01-19T19:01:19.112Z,98803.91
2024-01-19T19:05:22.049Z,98812.16
2024-01-19T19:09:26.209Z,98813.91
2024-01-19T19:13:28.283Z,98812.44
2024-01-19T19:17:30.491Z,98810.50
2024-01-19T19:21:33.877Z,98820.72
2024-01-19T19:25:36.063Z,98818.25
2024-01-19T19:29:38.354Z,98826.97
2024-01-19T19:33:41.754Z,98829.66
2024-01-19T19:37:43.821Z,98846.91
2024-01-19T19:41:48.144Z,98852.81
2024-01-19T19:45:52.873Z,98852.94
2024-01-19T19:49:55.288Z,98855.75
2024-01-19T19:53:57.456Z,98856.06
2024-01-19T19:57:59.532Z,98864.59
2024-01-19T20:02:01.678Z,98861.16
2024-01-19T20:06:03.960Z,98857.66
2024-01-19T20:10:06.814Z,98859.38
2024-01-19T20:14:09.181Z,98861.06
2024-01-19T20:18:11.807Z,98867.81
2024-01-19T20:22:14.990Z,98868.72
2024-01-19T20:26:17.478Z,98875.53
2024-01-19T20:30:20.867Z,98882.47
2024-01-19T20:34:24.515Z,98881.59
2024-01-19T20:38:29.542Z,98872.16
2024-01-19T20:42:31.651Z,98872.16
2024-01-19T20:46:33.738Z,98875.53
2024-01-19T20:50:35.817Z,98873.75
2024-01-19T20:54:37.870Z,98882.28
2024-01-19T20:58:39.926Z,98884.75
2024-01-19T21:02:42.212Z,98873.31
2024-01-19T21:06:45.809Z,98882.78
2024-01-19T21:10:48.243Z,98878.09
2024-01-19T21:14:50.343Z,98874.56
2024-01-19T21:18:53.959Z,98871.00
2024-01-19T21:22:56.164Z,98868.22
2024-01-19T21:26:58.275Z,98874.97
2024-01-19T21:31:00.658Z,98879.78
2024-01-19T21:35:04.569Z,98873.47
2024-01-19T21:39:06.756Z,98886.09
2024-01-19T21:43:08.982Z,98890.97
2024-01-19T21:47:11.366Z,98895.13
2024-01-19T21:51:16.155Z,98903.31
2024-01-19T21:55:18.327Z,98915.81
2024-01-19T21:59:20.644Z,98906.91
2024-01-19T22:03:22.728Z,98902.38
2024-01-19T22:07:25.055Z,98918.28
2024-01-19T22:11:27.475Z,98915.41
2024-01-19T22:15:29.666Z,98923.28
2024-01-19T22:19:31.752Z,98923.13
2024-01-19T22:23:35.373Z,98930.00
2024-01-19T22:27:37.446Z,98930.41
2024-01-19T22:31:40.381Z,98935.09
2024-01-19T22:35:42.681Z,98941.72
2024-01-19T22:39:49.410Z,98946.16
2024-01-19T22:43:53.339Z,98936.81
2024-01-19T22:47:55.415Z,98943.16
2024-01-19T22:51:58.260Z,98952.38
2024-01-19T22:56:01.148Z,98951.72
2024-01-19T23:00:05.786Z,98951.72
2024-01-19T23:04:08.830Z,98952.97
2024-01-19T23:08:11.297Z,98957.66
2024-01-19T23:12:13.400Z,98970.84
2024-01-19T23:16:15.789Z,98962.25
2024-01-19T23:20:18.453Z,98969.19
2024-01-19T23:24:20.601Z,98960.00
2024-01-19T23:28:22.832Z,98960.84
2024-01-19T23:32:25.073Z,98951.28
2024-01-19T23:36:27.359Z,98954.53
2024-01-19T23:40:29.587Z,98953.91
2024-01-19T23:44:31.673Z,98952.47
2024-01-19T23:48:34.008Z,98954.88
2024-01-19T23:52:36.228Z,98959.22
2024-01-19T23:56:38.364Z,98967.03
